<?xml version='1.0' encoding='UTF-8'?><gpx version="1.1" creator="JPX - https://github.com/jenetics/jpx" xmlns="http://www.topografix.com/GPX/1/1"><trk><trkseg><trkpt lat="45.7595946" lon="8.9681678"><ele>385.0</ele><time>2026-05-01T13:50:42.978Z</time></trkpt><trkpt lat="45.7596544" lon="8.9682289"><ele>385.0</ele><time>2026-05-01T13:50:49.058Z</time></trkpt><trkpt lat="45.7596791" lon="8.968313"><ele>385.0</ele><time>2026-05-01T13:50:54.02Z</time></trkpt><trkpt lat="45.7597195" lon="8.9683938"><ele>385.0</ele><time>2026-05-01T13:50:57.102Z</time></trkpt><trkpt lat="45.7597807" lon="8.9684681"><ele>385.0</ele><time>2026-05-01T13:51:00.056Z</time></trkpt><trkpt lat="45.759841" lon="8.9685587"><ele>385.0</ele><time>2026-05-01T13:51:02.936Z</time></trkpt><trkpt lat="45.7598804" lon="8.9686395"><ele>385.0</ele><time>2026-05-01T13:51:05.017Z</time></trkpt><trkpt lat="45.7598936" lon="8.968729"><ele>384.57142857142856</ele><time>2026-05-01T13:51:07.099Z</time></trkpt><trkpt lat="45.7599063" lon="8.9688333"><ele>384.1428571428571</ele><time>2026-05-01T13:51:10.024Z</time></trkpt><trkpt lat="45.7599171" lon="8.9689347"><ele>383.7142857142857</ele><time>2026-05-01T13:51:13.024Z</time></trkpt><trkpt lat="45.7599279" lon="8.9690334"><ele>383.2857142857143</ele><time>2026-05-01T13:51:16.843Z</time></trkpt><trkpt lat="45.7599424" lon="8.9691244"><ele>382.85714285714283</ele><time>2026-05-01T13:51:20.022Z</time></trkpt><trkpt lat="45.7599052" lon="8.9692285"><ele>382.42857142857144</ele><time>2026-05-01T13:51:24.116Z</time></trkpt><trkpt lat="45.7598669" lon="8.9693301"><ele>382.0</ele><time>2026-05-01T13:51:28.062Z</time></trkpt><trkpt lat="45.7598157" lon="8.969402"><ele>381.7142857142857</ele><time>2026-05-01T13:51:32.997Z</time></trkpt><trkpt lat="45.7597545" lon="8.9694375"><ele>381.4285714285714</ele><time>2026-05-01T13:51:36.031Z</time></trkpt><trkpt lat="45.7596908" lon="8.9694901"><ele>381.1428571428571</ele><time>2026-05-01T13:51:39.082Z</time></trkpt><trkpt lat="45.7596316" lon="8.969523"><ele>380.8571428571429</ele><time>2026-05-01T13:51:42.102Z</time></trkpt><trkpt lat="45.7595625" lon="8.969543"><ele>380.57142857142856</ele><time>2026-05-01T13:51:45.999Z</time></trkpt><trkpt lat="45.7594964" lon="8.969547"><ele>380.2857142857143</ele><time>2026-05-01T13:51:50.018Z</time></trkpt><trkpt lat="45.75943" lon="8.9695379"><ele>380.0</ele><time>2026-05-01T13:52:04.161Z</time></trkpt><trkpt lat="45.7593384" lon="8.9697323"><ele>379.4</ele><time>2026-05-01T13:52:16.025Z</time></trkpt><trkpt lat="45.7592792" lon="8.9700079"><ele>378.8</ele><time>2026-05-01T13:52:24.081Z</time></trkpt><trkpt lat="45.7593139" lon="8.9700904"><ele>378.20000000000005</ele><time>2026-05-01T13:52:30.004Z</time></trkpt><trkpt lat="45.7593724" lon="8.9701466"><ele>377.6</ele><time>2026-05-01T13:52:33.999Z</time></trkpt><trkpt lat="45.7594304" lon="8.9701897"><ele>377.0</ele><time>2026-05-01T13:52:37.016Z</time></trkpt><trkpt lat="45.7595035" lon="8.9702225"><ele>375.75</ele><time>2026-05-01T13:52:41.1Z</time></trkpt><trkpt lat="45.7595592" lon="8.9702668"><ele>374.5</ele><time>2026-05-01T13:52:47.981Z</time></trkpt><trkpt lat="45.7596417" lon="8.9702687"><ele>373.25</ele><time>2026-05-01T13:52:57.024Z</time></trkpt><trkpt lat="45.7597951" lon="8.9702277"><ele>372.0</ele><time>2026-05-01T13:53:02.02Z</time></trkpt><trkpt lat="45.7599747" lon="8.9702242"><ele>372.0</ele><time>2026-05-01T13:53:10.084Z</time></trkpt><trkpt lat="45.7600389" lon="8.9702117"><ele>372.0</ele><time>2026-05-01T13:53:14.018Z</time></trkpt><trkpt lat="45.7601497" lon="8.9701525"><ele>372.0</ele><time>2026-05-01T13:53:17.072Z</time></trkpt><trkpt lat="45.7602251" lon="8.9701042"><ele>372.0</ele><time>2026-05-01T13:53:21.998Z</time></trkpt><trkpt lat="45.760387" lon="8.9700825"><ele>372.0</ele><time>2026-05-01T13:53:31.079Z</time></trkpt><trkpt lat="45.7604555" lon="8.9700666"><ele>373.8333333333333</ele><time>2026-05-01T13:53:35.041Z</time></trkpt><trkpt lat="45.7605807" lon="8.969978"><ele>375.6666666666667</ele><time>2026-05-01T13:53:41.876Z</time></trkpt><trkpt lat="45.7606386" lon="8.9699381"><ele>377.5</ele><time>2026-05-01T13:53:45.024Z</time></trkpt><trkpt lat="45.760687" lon="8.9698764"><ele>379.33333333333337</ele><time>2026-05-01T13:53:50.064Z</time></trkpt><trkpt lat="45.760742" lon="8.9698182"><ele>381.1666666666667</ele><time>2026-05-01T13:53:55.105Z</time></trkpt><trkpt lat="45.7607988" lon="8.9697737"><ele>383.0</ele><time>2026-05-01T13:53:59.943Z</time></trkpt><trkpt lat="45.7609976" lon="8.9697282"><ele>383.25</ele><time>2026-05-01T13:54:07.116Z</time></trkpt><trkpt lat="45.7612213" lon="8.9696572"><ele>383.5</ele><time>2026-05-01T13:54:17.04Z</time></trkpt><trkpt lat="45.7612918" lon="8.9696293"><ele>383.75</ele><time>2026-05-01T13:54:20.079Z</time></trkpt><trkpt lat="45.7613542" lon="8.969605"><ele>384.0</ele><time>2026-05-01T13:54:25.098Z</time></trkpt><trkpt lat="45.7615358" lon="8.9696392"><ele>384.0</ele><time>2026-05-01T13:54:30.062Z</time></trkpt><trkpt lat="45.7616011" lon="8.969663"><ele>384.0</ele><time>2026-05-01T13:54:35.905Z</time></trkpt><trkpt lat="45.7617504" lon="8.9697296"><ele>384.0</ele><time>2026-05-01T13:54:40.998Z</time></trkpt><trkpt lat="45.7618151" lon="8.9697484"><ele>384.0</ele><time>2026-05-01T13:54:46.057Z</time></trkpt><trkpt lat="45.76188" lon="8.969738"><ele>384.0</ele><time>2026-05-01T13:54:52.041Z</time></trkpt><trkpt lat="45.7620143" lon="8.9696897"><ele>385.0</ele><time>2026-05-01T13:55:01.09Z</time></trkpt><trkpt lat="45.7620812" lon="8.9696787"><ele>386.0</ele><time>2026-05-01T13:55:02.008Z</time></trkpt><trkpt lat="45.7622775" lon="8.9697149"><ele>387.0</ele><time>2026-05-01T13:55:07.048Z</time></trkpt><trkpt lat="45.7623504" lon="8.9697259"><ele>388.0</ele><time>2026-05-01T13:55:09Z</time></trkpt><trkpt lat="45.7624165" lon="8.9697038"><ele>389.0</ele><time>2026-05-01T13:55:15.067Z</time></trkpt><trkpt lat="45.7624891" lon="8.9696882"><ele>389.0</ele><time>2026-05-01T13:55:21.299Z</time></trkpt><trkpt lat="45.7625701" lon="8.9696868"><ele>389.0</ele><time>2026-05-01T13:55:21.996Z</time></trkpt><trkpt lat="45.762635" lon="8.9696562"><ele>389.0</ele><time>2026-05-01T13:55:25.638Z</time></trkpt><trkpt lat="45.762675" lon="8.9695772"><ele>389.0</ele><time>2026-05-01T13:55:31.121Z</time></trkpt><trkpt lat="45.7628548" lon="8.969529"><ele>389.0</ele><time>2026-05-01T13:55:40.041Z</time></trkpt><trkpt lat="45.7629234" lon="8.969508"><ele>389.79999999999995</ele><time>2026-05-01T13:55:45.082Z</time></trkpt><trkpt lat="45.7629843" lon="8.9694768"><ele>390.59999999999997</ele><time>2026-05-01T13:55:50.008Z</time></trkpt><trkpt lat="45.7630669" lon="8.9694085"><ele>391.4</ele><time>2026-05-01T13:55:56.998Z</time></trkpt><trkpt lat="45.7631312" lon="8.9693525"><ele>392.2</ele><time>2026-05-01T13:55:58.027Z</time></trkpt><trkpt lat="45.7631926" lon="8.9693026"><ele>393.0</ele><time>2026-05-01T13:56:01.824Z</time></trkpt><trkpt lat="45.7633191" lon="8.9691484"><ele>393.0</ele><time>2026-05-01T13:56:11.079Z</time></trkpt><trkpt lat="45.7633643" lon="8.9690779"><ele>393.0</ele><time>2026-05-01T13:56:13.981Z</time></trkpt><trkpt lat="45.7633984" lon="8.9689971"><ele>393.0</ele><time>2026-05-01T13:56:20.022Z</time></trkpt><trkpt lat="45.7635146" lon="8.9688645"><ele>393.0</ele><time>2026-05-01T13:56:23.116Z</time></trkpt><trkpt lat="45.7635695" lon="8.9688153"><ele>393.0</ele><time>2026-05-01T13:56:26.039Z</time></trkpt><trkpt lat="45.763789" lon="8.9687497"><ele>393.2</ele><time>2026-05-01T13:56:32.051Z</time></trkpt><trkpt lat="45.7638448" lon="8.9686923"><ele>393.4</ele><time>2026-05-01T13:56:36.998Z</time></trkpt><trkpt lat="45.7639486" lon="8.9685496"><ele>393.59999999999997</ele><time>2026-05-01T13:56:44.015Z</time></trkpt><trkpt lat="45.7640032" lon="8.9684919"><ele>393.79999999999995</ele><time>2026-05-01T13:56:44.998Z</time></trkpt><trkpt lat="45.7640563" lon="8.9684371"><ele>394.0</ele><time>2026-05-01T13:56:49.006Z</time></trkpt><trkpt lat="45.7641613" lon="8.9683102"><ele>394.0</ele><time>2026-05-01T13:56:51.997Z</time></trkpt><trkpt lat="45.7642111" lon="8.9682358"><ele>394.0</ele><time>2026-05-01T13:56:56.108Z</time></trkpt><trkpt lat="45.7642701" lon="8.9681932"><ele>394.0</ele><time>2026-05-01T13:57:06.059Z</time></trkpt><trkpt lat="45.7644039" lon="8.968247"><ele>394.0</ele><time>2026-05-01T13:57:12.033Z</time></trkpt><trkpt lat="45.7644555" lon="8.9683061"><ele>394.0</ele><time>2026-05-01T13:57:19.021Z</time></trkpt><trkpt lat="45.7645628" lon="8.9684422"><ele>395.1666666666667</ele><time>2026-05-01T13:57:26.021Z</time></trkpt><trkpt lat="45.7646148" lon="8.9685112"><ele>396.33333333333337</ele><time>2026-05-01T13:57:32.081Z</time></trkpt><trkpt lat="45.7646551" lon="8.9685907"><ele>397.5</ele><time>2026-05-01T13:57:39.296Z</time></trkpt><trkpt lat="45.7646881" lon="8.9686681"><ele>398.66666666666663</ele><time>2026-05-01T13:57:46.838Z</time></trkpt><trkpt lat="45.764725" lon="8.9687499"><ele>399.8333333333333</ele><time>2026-05-01T13:57:53.046Z</time></trkpt><trkpt lat="45.7648389" lon="8.9688965"><ele>401.0</ele><time>2026-05-01T13:57:59.077Z</time></trkpt><trkpt lat="45.7648948" lon="8.968958"><ele>401.0</ele><time>2026-05-01T13:58:02.096Z</time></trkpt><trkpt lat="45.7650586" lon="8.9690688"><ele>401.0</ele><time>2026-05-01T13:58:08.98Z</time></trkpt><trkpt lat="45.7651255" lon="8.9691149"><ele>401.0</ele><time>2026-05-01T13:58:11.119Z</time></trkpt><trkpt lat="45.7652349" lon="8.9693755"><ele>402.6</ele><time>2026-05-01T13:58:22.029Z</time></trkpt><trkpt lat="45.7652586" lon="8.9694652"><ele>404.20000000000005</ele><time>2026-05-01T13:58:28.079Z</time></trkpt><trkpt lat="45.765328" lon="8.9696359"><ele>405.79999999999995</ele><time>2026-05-01T13:58:33.803Z</time></trkpt><trkpt lat="45.7653573" lon="8.9697162"><ele>407.4</ele><time>2026-05-01T13:58:35.089Z</time></trkpt><trkpt lat="45.7653905" lon="8.9697951"><ele>409.0</ele><time>2026-05-01T13:58:45.056Z</time></trkpt><trkpt lat="45.7653661" lon="8.9699753"><ele>409.1666666666667</ele><time>2026-05-01T13:58:55.023Z</time></trkpt><trkpt lat="45.765346" lon="8.9700913"><ele>409.33333333333337</ele><time>2026-05-01T13:58:57.085Z</time></trkpt><trkpt lat="45.7653397" lon="8.9701824"><ele>409.5</ele><time>2026-05-01T13:59:02.011Z</time></trkpt><trkpt lat="45.7653886" lon="8.9703537"><ele>409.66666666666663</ele><time>2026-05-01T13:59:06.021Z</time></trkpt><trkpt lat="45.7654312" lon="8.9704331"><ele>409.8333333333333</ele><time>2026-05-01T13:59:08.083Z</time></trkpt><trkpt lat="45.7654569" lon="8.9705185"><ele>410.0</ele><time>2026-05-01T13:59:14.096Z</time></trkpt><trkpt lat="45.7655665" lon="8.9706657"><ele>409.99999999999994</ele><time>2026-05-01T13:59:21.029Z</time></trkpt><trkpt lat="45.7656248" lon="8.9707347"><ele>410.0</ele><time>2026-05-01T13:59:24.007Z</time></trkpt><trkpt lat="45.765734" lon="8.9708658"><ele>410.0</ele><time>2026-05-01T13:59:29.048Z</time></trkpt><trkpt lat="45.7657875" lon="8.9709269"><ele>410.0</ele><time>2026-05-01T13:59:30.998Z</time></trkpt><trkpt lat="45.7658647" lon="8.9709682"><ele>409.99999999999994</ele><time>2026-05-01T13:59:35.958Z</time></trkpt><trkpt lat="45.765892" lon="8.9710517"><ele>410.0</ele><time>2026-05-01T13:59:37.004Z</time></trkpt><trkpt lat="45.7659473" lon="8.9711137"><ele>409.8571428571429</ele><time>2026-05-01T13:59:39.036Z</time></trkpt><trkpt lat="45.7660122" lon="8.9711696"><ele>409.71428571428567</ele><time>2026-05-01T13:59:42.062Z</time></trkpt><trkpt lat="45.7660706" lon="8.9712333"><ele>409.57142857142856</ele><time>2026-05-01T13:59:45.122Z</time></trkpt><trkpt lat="45.7661458" lon="8.9712903"><ele>409.42857142857144</ele><time>2026-05-01T13:59:48.245Z</time></trkpt><trkpt lat="45.7662075" lon="8.971335"><ele>409.28571428571433</ele><time>2026-05-01T13:59:51.419Z</time></trkpt><trkpt lat="45.7662729" lon="8.9713131"><ele>409.1428571428571</ele><time>2026-05-01T13:59:55.696Z</time></trkpt><trkpt lat="45.7663384" lon="8.9712881"><ele>409.0</ele><time>2026-05-01T13:59:58.886Z</time></trkpt><trkpt lat="45.7664191" lon="8.9712358"><ele>408.83333333333337</ele><time>2026-05-01T14:00:02.121Z</time></trkpt><trkpt lat="45.7665092" lon="8.9712255"><ele>408.6666666666667</ele><time>2026-05-01T14:00:05.004Z</time></trkpt><trkpt lat="45.7665849" lon="8.9712088"><ele>408.5</ele><time>2026-05-01T14:00:07.999Z</time></trkpt><trkpt lat="45.7666554" lon="8.9712511"><ele>408.33333333333337</ele><time>2026-05-01T14:00:11.08Z</time></trkpt><trkpt lat="45.7667242" lon="8.9712613"><ele>408.1666666666667</ele><time>2026-05-01T14:00:14.071Z</time></trkpt><trkpt lat="45.7668122" lon="8.9713019"><ele>408.0</ele><time>2026-05-01T14:00:17.023Z</time></trkpt><trkpt lat="45.7669168" lon="8.971324"><ele>406.7142857142857</ele><time>2026-05-01T14:00:19Z</time></trkpt><trkpt lat="45.7669842" lon="8.9713417"><ele>405.42857142857144</ele><time>2026-05-01T14:00:20.028Z</time></trkpt><trkpt lat="45.7670521" lon="8.971346"><ele>404.1428571428571</ele><time>2026-05-01T14:00:22.091Z</time></trkpt><trkpt lat="45.7671328" lon="8.9713496"><ele>402.8571428571429</ele><time>2026-05-01T14:00:24.981Z</time></trkpt><trkpt lat="45.7672051" lon="8.9713387"><ele>401.57142857142856</ele><time>2026-05-01T14:00:28.048Z</time></trkpt><trkpt lat="45.767276" lon="8.9713318"><ele>400.2857142857143</ele><time>2026-05-01T14:00:31.058Z</time></trkpt><trkpt lat="45.7673515" lon="8.9713308"><ele>399.0</ele><time>2026-05-01T14:00:34.005Z</time></trkpt><trkpt lat="45.7674441" lon="8.9713329"><ele>399.0</ele><time>2026-05-01T14:00:37.098Z</time></trkpt><trkpt lat="45.7675191" lon="8.9713307"><ele>399.0</ele><time>2026-05-01T14:00:39.96Z</time></trkpt><trkpt lat="45.7675848" lon="8.9713411"><ele>399.0</ele><time>2026-05-01T14:00:43.023Z</time></trkpt><trkpt lat="45.7676641" lon="8.971347"><ele>399.0</ele><time>2026-05-01T14:00:47.101Z</time></trkpt><trkpt lat="45.7677309" lon="8.9713397"><ele>399.0</ele><time>2026-05-01T14:00:50.044Z</time></trkpt><trkpt lat="45.7678058" lon="8.9713432"><ele>399.0</ele><time>2026-05-01T14:00:52.92Z</time></trkpt><trkpt lat="45.7678705" lon="8.9713475"><ele>399.0</ele><time>2026-05-01T14:00:56.061Z</time></trkpt><trkpt lat="45.767946" lon="8.9713747"><ele>398.2857142857143</ele><time>2026-05-01T14:00:59.094Z</time></trkpt><trkpt lat="45.7680232" lon="8.9713765"><ele>397.57142857142856</ele><time>2026-05-01T14:01:01.956Z</time></trkpt><trkpt lat="45.7680872" lon="8.9713597"><ele>396.8571428571429</ele><time>2026-05-01T14:01:05.059Z</time></trkpt><trkpt lat="45.7681565" lon="8.971345"><ele>396.1428571428571</ele><time>2026-05-01T14:01:09.061Z</time></trkpt><trkpt lat="45.7682307" lon="8.9713178"><ele>395.42857142857144</ele><time>2026-05-01T14:01:11.918Z</time></trkpt><trkpt lat="45.7683063" lon="8.9712931"><ele>394.7142857142857</ele><time>2026-05-01T14:01:15.04Z</time></trkpt><trkpt lat="45.7683845" lon="8.971275"><ele>394.0</ele><time>2026-05-01T14:01:18.143Z</time></trkpt><trkpt lat="45.7684691" lon="8.9712718"><ele>393.6666666666667</ele><time>2026-05-01T14:01:21.236Z</time></trkpt><trkpt lat="45.768545" lon="8.9712662"><ele>393.33333333333337</ele><time>2026-05-01T14:01:24.497Z</time></trkpt><trkpt lat="45.7686187" lon="8.971237"><ele>393.0</ele><time>2026-05-01T14:01:27.637Z</time></trkpt><trkpt lat="45.7686899" lon="8.9712146"><ele>392.66666666666663</ele><time>2026-05-01T14:01:30.84Z</time></trkpt><trkpt lat="45.768764" lon="8.9711772"><ele>392.3333333333333</ele><time>2026-05-01T14:01:35.002Z</time></trkpt><trkpt lat="45.7688416" lon="8.9711406"><ele>392.0</ele><time>2026-05-01T14:01:39.077Z</time></trkpt><trkpt lat="45.7689419" lon="8.9711186"><ele>392.0</ele><time>2026-05-01T14:01:45.098Z</time></trkpt><trkpt lat="45.7690277" lon="8.9710929"><ele>392.0</ele><time>2026-05-01T14:01:49.043Z</time></trkpt><trkpt lat="45.769088" lon="8.9710646"><ele>392.0</ele><time>2026-05-01T14:01:52.001Z</time></trkpt><trkpt lat="45.7692511" lon="8.9709921"><ele>392.0</ele><time>2026-05-01T14:01:55.001Z</time></trkpt><trkpt lat="45.7693404" lon="8.9709703"><ele>392.0</ele><time>2026-05-01T14:01:57.063Z</time></trkpt><trkpt lat="45.7694088" lon="8.9709409"><ele>392.16666666666663</ele><time>2026-05-01T14:01:59.996Z</time></trkpt><trkpt lat="45.7694881" lon="8.9708767"><ele>392.3333333333333</ele><time>2026-05-01T14:02:03.122Z</time></trkpt><trkpt lat="45.7695383" lon="8.9708206"><ele>392.5</ele><time>2026-05-01T14:02:05.082Z</time></trkpt><trkpt lat="45.7696179" lon="8.9707602"><ele>392.66666666666663</ele><time>2026-05-01T14:02:07.925Z</time></trkpt><trkpt lat="45.7696795" lon="8.9707116"><ele>392.8333333333333</ele><time>2026-05-01T14:02:10.039Z</time></trkpt><trkpt lat="45.769744" lon="8.9706749"><ele>393.0</ele><time>2026-05-01T14:02:12.12Z</time></trkpt><trkpt lat="45.7698192" lon="8.970633"><ele>393.2</ele><time>2026-05-01T14:02:15.048Z</time></trkpt><trkpt lat="45.7698954" lon="8.9705866"><ele>393.4</ele><time>2026-05-01T14:02:19Z</time></trkpt><trkpt lat="45.7700192" lon="8.9705383"><ele>393.59999999999997</ele><time>2026-05-01T14:02:20.09Z</time></trkpt><trkpt lat="45.7701028" lon="8.9704628"><ele>393.79999999999995</ele><time>2026-05-01T14:02:22.12Z</time></trkpt><trkpt lat="45.7701699" lon="8.9703836"><ele>394.0</ele><time>2026-05-01T14:02:25.137Z</time></trkpt><trkpt lat="45.7702377" lon="8.9703211"><ele>394.00000000000006</ele><time>2026-05-01T14:02:27.998Z</time></trkpt><trkpt lat="45.7703095" lon="8.9702478"><ele>394.0</ele><time>2026-05-01T14:02:31.023Z</time></trkpt><trkpt lat="45.7703831" lon="8.9701599"><ele>394.0</ele><time>2026-05-01T14:02:34.078Z</time></trkpt><trkpt lat="45.7704405" lon="8.9700669"><ele>394.0</ele><time>2026-05-01T14:02:37.045Z</time></trkpt><trkpt lat="45.7704909" lon="8.9699842"><ele>394.00000000000006</ele><time>2026-05-01T14:02:40.023Z</time></trkpt><trkpt lat="45.7705422" lon="8.9699173"><ele>394.0</ele><time>2026-05-01T14:02:42.956Z</time></trkpt><trkpt lat="45.7706005" lon="8.9698353"><ele>394.33333333333337</ele><time>2026-05-01T14:02:46.085Z</time></trkpt><trkpt lat="45.7706672" lon="8.9697633"><ele>394.6666666666667</ele><time>2026-05-01T14:02:49.074Z</time></trkpt><trkpt lat="45.770721" lon="8.9696987"><ele>395.0</ele><time>2026-05-01T14:02:51.965Z</time></trkpt><trkpt lat="45.7707684" lon="8.9696106"><ele>395.33333333333337</ele><time>2026-05-01T14:02:55.062Z</time></trkpt><trkpt lat="45.7708079" lon="8.9694958"><ele>395.6666666666667</ele><time>2026-05-01T14:02:58.15Z</time></trkpt><trkpt lat="45.7708372" lon="8.9693992"><ele>396.0</ele><time>2026-05-01T14:03:01.103Z</time></trkpt><trkpt lat="45.7708954" lon="8.9693365"><ele>396.0</ele><time>2026-05-01T14:03:03.979Z</time></trkpt><trkpt lat="45.770975" lon="8.9692993"><ele>396.0</ele><time>2026-05-01T14:03:07.095Z</time></trkpt><trkpt lat="45.7710567" lon="8.9692811"><ele>396.0</ele><time>2026-05-01T14:03:10.039Z</time></trkpt><trkpt lat="45.771133" lon="8.9692257"><ele>396.0</ele><time>2026-05-01T14:03:13.039Z</time></trkpt><trkpt lat="45.7712076" lon="8.9691709"><ele>396.0</ele><time>2026-05-01T14:03:16.12Z</time></trkpt><trkpt lat="45.7712822" lon="8.9691281"><ele>396.0</ele><time>2026-05-01T14:03:19.089Z</time></trkpt><trkpt lat="45.771351" lon="8.9690992"><ele>394.8571428571429</ele><time>2026-05-01T14:03:21.953Z</time></trkpt><trkpt lat="45.771422" lon="8.9690481"><ele>393.71428571428567</ele><time>2026-05-01T14:03:25.046Z</time></trkpt><trkpt lat="45.7714917" lon="8.9690166"><ele>392.57142857142856</ele><time>2026-05-01T14:03:27.984Z</time></trkpt><trkpt lat="45.7715656" lon="8.9689845"><ele>391.42857142857144</ele><time>2026-05-01T14:03:31.119Z</time></trkpt><trkpt lat="45.7716416" lon="8.9689662"><ele>390.28571428571433</ele><time>2026-05-01T14:03:34.096Z</time></trkpt><trkpt lat="45.7717046" lon="8.9689491"><ele>389.1428571428571</ele><time>2026-05-01T14:03:37.058Z</time></trkpt><trkpt lat="45.7717795" lon="8.9689697"><ele>388.0</ele><time>2026-05-01T14:03:40.054Z</time></trkpt><trkpt lat="45.7718375" lon="8.969026"><ele>388.4</ele><time>2026-05-01T14:03:43.063Z</time></trkpt><trkpt lat="45.7719613" lon="8.9689761"><ele>388.79999999999995</ele><time>2026-05-01T14:03:44.103Z</time></trkpt><trkpt lat="45.7720581" lon="8.9689546"><ele>389.2</ele><time>2026-05-01T14:03:46.011Z</time></trkpt><trkpt lat="45.7721469" lon="8.9689714"><ele>389.6</ele><time>2026-05-01T14:03:49.058Z</time></trkpt><trkpt lat="45.7722411" lon="8.968983"><ele>390.0</ele><time>2026-05-01T14:03:52.083Z</time></trkpt><trkpt lat="45.7723265" lon="8.9690105"><ele>390.0</ele><time>2026-05-01T14:03:55.131Z</time></trkpt><trkpt lat="45.7724006" lon="8.9690543"><ele>390.0</ele><time>2026-05-01T14:03:57.985Z</time></trkpt><trkpt lat="45.772471" lon="8.9690927"><ele>390.0</ele><time>2026-05-01T14:04:01.018Z</time></trkpt><trkpt lat="45.7725228" lon="8.9691569"><ele>390.0</ele><time>2026-05-01T14:04:03.999Z</time></trkpt><trkpt lat="45.7725789" lon="8.969226"><ele>390.0</ele><time>2026-05-01T14:04:08.007Z</time></trkpt><trkpt lat="45.7726563" lon="8.9692707"><ele>390.0</ele><time>2026-05-01T14:04:12.1Z</time></trkpt><trkpt lat="45.7727278" lon="8.9693183"><ele>390.3333333333333</ele><time>2026-05-01T14:04:15.92Z</time></trkpt><trkpt lat="45.7727887" lon="8.969384"><ele>390.66666666666663</ele><time>2026-05-01T14:04:20.119Z</time></trkpt><trkpt lat="45.772872" lon="8.9694192"><ele>391.0</ele><time>2026-05-01T14:04:24.08Z</time></trkpt><trkpt lat="45.7729462" lon="8.9694562"><ele>391.3333333333333</ele><time>2026-05-01T14:04:28Z</time></trkpt><trkpt lat="45.7729536" lon="8.9696097"><ele>391.66666666666663</ele><time>2026-05-01T14:04:30.802Z</time></trkpt><trkpt lat="45.7729472" lon="8.9697425"><ele>392.0</ele><time>2026-05-01T14:04:33.096Z</time></trkpt><trkpt lat="45.7729914" lon="8.9698585"><ele>391.99999999999994</ele><time>2026-05-01T14:04:36Z</time></trkpt><trkpt lat="45.7730365" lon="8.9699668"><ele>392.0</ele><time>2026-05-01T14:04:39.122Z</time></trkpt><trkpt lat="45.7730885" lon="8.9700426"><ele>392.0</ele><time>2026-05-01T14:04:42.032Z</time></trkpt><trkpt lat="45.7731547" lon="8.970107"><ele>392.0</ele><time>2026-05-01T14:04:45.01Z</time></trkpt><trkpt lat="45.7732309" lon="8.9701549"><ele>391.99999999999994</ele><time>2026-05-01T14:04:48.103Z</time></trkpt><trkpt lat="45.7733003" lon="8.9701902"><ele>392.0</ele><time>2026-05-01T14:04:51.06Z</time></trkpt><trkpt lat="45.7733809" lon="8.9702029"><ele>391.7142857142857</ele><time>2026-05-01T14:04:54.061Z</time></trkpt><trkpt lat="45.7734582" lon="8.9702061"><ele>391.42857142857144</ele><time>2026-05-01T14:04:57.039Z</time></trkpt><trkpt lat="45.773523" lon="8.9701873"><ele>391.1428571428571</ele><time>2026-05-01T14:05:00.039Z</time></trkpt><trkpt lat="45.773595" lon="8.970161"><ele>390.8571428571429</ele><time>2026-05-01T14:05:03.111Z</time></trkpt><trkpt lat="45.7736749" lon="8.9701146"><ele>390.57142857142856</ele><time>2026-05-01T14:05:06.019Z</time></trkpt><trkpt lat="45.7737403" lon="8.9700849"><ele>390.2857142857143</ele><time>2026-05-01T14:05:08.063Z</time></trkpt><trkpt lat="45.7738" lon="8.9700447"><ele>390.0</ele><time>2026-05-01T14:05:10.099Z</time></trkpt><trkpt lat="45.7738434" lon="8.9699792"><ele>390.0</ele><time>2026-05-01T14:05:11.919Z</time></trkpt><trkpt lat="45.7738871" lon="8.9699079"><ele>390.0</ele><time>2026-05-01T14:05:14.001Z</time></trkpt><trkpt lat="45.7739382" lon="8.9698116"><ele>390.0</ele><time>2026-05-01T14:05:16.998Z</time></trkpt><trkpt lat="45.773991" lon="8.9697207"><ele>390.0</ele><time>2026-05-01T14:05:20.066Z</time></trkpt><trkpt lat="45.7740412" lon="8.9696234"><ele>390.0</ele><time>2026-05-01T14:05:23.038Z</time></trkpt><trkpt lat="45.7741017" lon="8.9695293"><ele>390.0</ele><time>2026-05-01T14:05:26.023Z</time></trkpt><trkpt lat="45.7741684" lon="8.969432"><ele>390.0</ele><time>2026-05-01T14:05:29.001Z</time></trkpt><trkpt lat="45.7742109" lon="8.9693618"><ele>390.0</ele><time>2026-05-01T14:05:31Z</time></trkpt><trkpt lat="45.774256" lon="8.9692896"><ele>390.0</ele><time>2026-05-01T14:05:33.123Z</time></trkpt><trkpt lat="45.7743202" lon="8.9691976"><ele>390.0</ele><time>2026-05-01T14:05:35.997Z</time></trkpt><trkpt lat="45.7743854" lon="8.9691258"><ele>390.0</ele><time>2026-05-01T14:05:38.976Z</time></trkpt><trkpt lat="45.7744575" lon="8.9690625"><ele>390.0</ele><time>2026-05-01T14:05:42.084Z</time></trkpt><trkpt lat="45.7745278" lon="8.9690142"><ele>389.8333333333333</ele><time>2026-05-01T14:05:45.041Z</time></trkpt><trkpt lat="45.7745884" lon="8.9689522"><ele>389.66666666666663</ele><time>2026-05-01T14:05:47.936Z</time></trkpt><trkpt lat="45.7746415" lon="8.9688755"><ele>389.5</ele><time>2026-05-01T14:05:51.057Z</time></trkpt><trkpt lat="45.7747057" lon="8.9688093"><ele>389.3333333333333</ele><time>2026-05-01T14:05:54.091Z</time></trkpt><trkpt lat="45.7747749" lon="8.9687332"><ele>389.16666666666663</ele><time>2026-05-01T14:05:57.063Z</time></trkpt><trkpt lat="45.774843" lon="8.9686526"><ele>389.0</ele><time>2026-05-01T14:06:00.049Z</time></trkpt><trkpt lat="45.7749141" lon="8.9685756"><ele>389.0</ele><time>2026-05-01T14:06:03.027Z</time></trkpt><trkpt lat="45.7749732" lon="8.9685122"><ele>389.0</ele><time>2026-05-01T14:06:06.085Z</time></trkpt><trkpt lat="45.7750303" lon="8.9684651"><ele>389.0</ele><time>2026-05-01T14:06:09.158Z</time></trkpt><trkpt lat="45.7750896" lon="8.9684305"><ele>389.0</ele><time>2026-05-01T14:06:12.319Z</time></trkpt><trkpt lat="45.7751704" lon="8.9683958"><ele>389.0</ele><time>2026-05-01T14:06:16.444Z</time></trkpt><trkpt lat="45.7752517" lon="8.9683643"><ele>389.0</ele><time>2026-05-01T14:06:20.573Z</time></trkpt><trkpt lat="45.7753171" lon="8.9683268"><ele>389.0</ele><time>2026-05-01T14:06:23.637Z</time></trkpt><trkpt lat="45.775388" lon="8.9682707"><ele>389.16666666666663</ele><time>2026-05-01T14:06:27.761Z</time></trkpt><trkpt lat="45.7754544" lon="8.9681804"><ele>389.3333333333333</ele><time>2026-05-01T14:06:31.841Z</time></trkpt><trkpt lat="45.775513" lon="8.9680695"><ele>389.5</ele><time>2026-05-01T14:06:34.921Z</time></trkpt><trkpt lat="45.7755556" lon="8.9679913"><ele>389.66666666666663</ele><time>2026-05-01T14:06:36.984Z</time></trkpt><trkpt lat="45.7756008" lon="8.9679284"><ele>389.8333333333333</ele><time>2026-05-01T14:06:38.998Z</time></trkpt><trkpt lat="45.775662" lon="8.9678667"><ele>390.0</ele><time>2026-05-01T14:06:41.079Z</time></trkpt><trkpt lat="45.7757204" lon="8.9678156"><ele>390.0</ele><time>2026-05-01T14:06:43.01Z</time></trkpt><trkpt lat="45.7757845" lon="8.967788"><ele>390.0</ele><time>2026-05-01T14:06:45.072Z</time></trkpt><trkpt lat="45.7758629" lon="8.967749"><ele>390.0</ele><time>2026-05-01T14:06:48.051Z</time></trkpt><trkpt lat="45.7759294" lon="8.9677225"><ele>390.0</ele><time>2026-05-01T14:06:51.021Z</time></trkpt><trkpt lat="45.7760092" lon="8.9676952"><ele>390.0</ele><time>2026-05-01T14:06:55.039Z</time></trkpt><trkpt lat="45.7760875" lon="8.9676596"><ele>390.0</ele><time>2026-05-01T14:06:58.985Z</time></trkpt><trkpt lat="45.7761405" lon="8.9676036"><ele>390.0</ele><time>2026-05-01T14:07:02.115Z</time></trkpt><trkpt lat="45.7761894" lon="8.9675221"><ele>390.6666666666667</ele><time>2026-05-01T14:07:05.006Z</time></trkpt><trkpt lat="45.7762582" lon="8.9674276"><ele>391.33333333333337</ele><time>2026-05-01T14:07:07.982Z</time></trkpt><trkpt lat="45.7763163" lon="8.9673785"><ele>392.0</ele><time>2026-05-01T14:07:10.064Z</time></trkpt><trkpt lat="45.7763907" lon="8.967314"><ele>392.6666666666667</ele><time>2026-05-01T14:07:13.174Z</time></trkpt><trkpt lat="45.7764592" lon="8.9672532"><ele>393.33333333333337</ele><time>2026-05-01T14:07:16.379Z</time></trkpt><trkpt lat="45.7765202" lon="8.9671866"><ele>394.0</ele><time>2026-05-01T14:07:19.477Z</time></trkpt><trkpt lat="45.7765849" lon="8.9671121"><ele>394.0</ele><time>2026-05-01T14:07:22.617Z</time></trkpt><trkpt lat="45.7766447" lon="8.9670579"><ele>394.0</ele><time>2026-05-01T14:07:25.721Z</time></trkpt><trkpt lat="45.7767078" lon="8.9670047"><ele>394.0</ele><time>2026-05-01T14:07:28.818Z</time></trkpt><trkpt lat="45.7767731" lon="8.9669342"><ele>394.0</ele><time>2026-05-01T14:07:31.903Z</time></trkpt><trkpt lat="45.7768356" lon="8.9668672"><ele>394.0</ele><time>2026-05-01T14:07:34.957Z</time></trkpt><trkpt lat="45.7768808" lon="8.9667948"><ele>394.0</ele><time>2026-05-01T14:07:37.985Z</time></trkpt><trkpt lat="45.7769227" lon="8.9667167"><ele>394.0</ele><time>2026-05-01T14:07:41.039Z</time></trkpt><trkpt lat="45.7769251" lon="8.9666022"><ele>394.1666666666667</ele><time>2026-05-01T14:07:44.102Z</time></trkpt><trkpt lat="45.7769096" lon="8.9664826"><ele>394.33333333333337</ele><time>2026-05-01T14:07:51.06Z</time></trkpt><trkpt lat="45.7769291" lon="8.9663807"><ele>394.5</ele><time>2026-05-01T14:07:54.921Z</time></trkpt><trkpt lat="45.7769855" lon="8.9663123"><ele>394.66666666666663</ele><time>2026-05-01T14:07:59.001Z</time></trkpt><trkpt lat="45.7770526" lon="8.966304"><ele>394.8333333333333</ele><time>2026-05-01T14:08:03.102Z</time></trkpt><trkpt lat="45.7770278" lon="8.9661967"><ele>395.0</ele><time>2026-05-01T14:08:06.068Z</time></trkpt><trkpt lat="45.7769147" lon="8.9662364"><ele>395.0</ele><time>2026-05-01T14:08:09.016Z</time></trkpt><trkpt lat="45.7768427" lon="8.966254"><ele>395.0</ele><time>2026-05-01T14:08:10.055Z</time></trkpt><trkpt lat="45.7768224" lon="8.9661659"><ele>395.0</ele><time>2026-05-01T14:08:14.088Z</time></trkpt><trkpt lat="45.7768767" lon="8.9660628"><ele>395.0</ele><time>2026-05-01T14:08:15.958Z</time></trkpt><trkpt lat="45.7768793" lon="8.9659491"><ele>395.0</ele><time>2026-05-01T14:08:26.003Z</time></trkpt><trkpt lat="45.7768263" lon="8.9658846"><ele>395.0</ele><time>2026-05-01T14:08:28.999Z</time></trkpt><trkpt lat="45.7767657" lon="8.9659175"><ele>395.0</ele><time>2026-05-01T14:08:30.012Z</time></trkpt><trkpt lat="45.7767297" lon="8.9657773"><ele>394.99999999999994</ele><time>2026-05-01T14:08:32.999Z</time></trkpt><trkpt lat="45.7767289" lon="8.9656433"><ele>395.0</ele><time>2026-05-01T14:08:36.1Z</time></trkpt><trkpt lat="45.7767275" lon="8.9655274"><ele>395.0</ele><time>2026-05-01T14:08:39.063Z</time></trkpt><trkpt lat="45.7767214" lon="8.965401"><ele>395.0</ele><time>2026-05-01T14:08:43.098Z</time></trkpt><trkpt lat="45.7767028" lon="8.9652927"><ele>394.99999999999994</ele><time>2026-05-01T14:08:47.082Z</time></trkpt><trkpt lat="45.7766744" lon="8.9652113"><ele>395.0</ele><time>2026-05-01T14:08:48.985Z</time></trkpt><trkpt lat="45.776643" lon="8.965101"><ele>394.85714285714283</ele><time>2026-05-01T14:08:51.056Z</time></trkpt><trkpt lat="45.7766319" lon="8.9649981"><ele>394.7142857142857</ele><time>2026-05-01T14:08:54.071Z</time></trkpt><trkpt lat="45.7766168" lon="8.964905"><ele>394.57142857142856</ele><time>2026-05-01T14:08:56.936Z</time></trkpt><trkpt lat="45.7765814" lon="8.9648076"><ele>394.42857142857144</ele><time>2026-05-01T14:09:00.021Z</time></trkpt><trkpt lat="45.7765369" lon="8.9647266"><ele>394.28571428571433</ele><time>2026-05-01T14:09:02.016Z</time></trkpt><trkpt lat="45.7765033" lon="8.9646394"><ele>394.14285714285717</ele><time>2026-05-01T14:09:05.069Z</time></trkpt><trkpt lat="45.7764898" lon="8.9645463"><ele>394.0</ele><time>2026-05-01T14:09:08.047Z</time></trkpt><trkpt lat="45.7764981" lon="8.964452"><ele>394.00000000000006</ele><time>2026-05-01T14:09:10.924Z</time></trkpt><trkpt lat="45.7765042" lon="8.9643345"><ele>394.0</ele><time>2026-05-01T14:09:14.041Z</time></trkpt><trkpt lat="45.7764708" lon="8.9642557"><ele>394.0</ele><time>2026-05-01T14:09:16.122Z</time></trkpt><trkpt lat="45.7764232" lon="8.9641709"><ele>394.0</ele><time>2026-05-01T14:09:20.077Z</time></trkpt><trkpt lat="45.7763947" lon="8.9640671"><ele>394.00000000000006</ele><time>2026-05-01T14:09:22.982Z</time></trkpt><trkpt lat="45.7763793" lon="8.9639558"><ele>394.0</ele><time>2026-05-01T14:09:26.065Z</time></trkpt><trkpt lat="45.7763703" lon="8.9638445"><ele>393.42857142857144</ele><time>2026-05-01T14:09:29.176Z</time></trkpt><trkpt lat="45.7763358" lon="8.9637674"><ele>392.8571428571429</ele><time>2026-05-01T14:09:32.299Z</time></trkpt><trkpt lat="45.7762783" lon="8.9637166"><ele>392.2857142857143</ele><time>2026-05-01T14:09:35.42Z</time></trkpt><trkpt lat="45.7762313" lon="8.9636546"><ele>391.7142857142857</ele><time>2026-05-01T14:09:38.524Z</time></trkpt><trkpt lat="45.7761914" lon="8.9635812"><ele>391.1428571428571</ele><time>2026-05-01T14:09:41.636Z</time></trkpt><trkpt lat="45.7761246" lon="8.9635195"><ele>390.57142857142856</ele><time>2026-05-01T14:09:45.76Z</time></trkpt><trkpt lat="45.776058" lon="8.9634635"><ele>390.0</ele><time>2026-05-01T14:09:50.878Z</time></trkpt><trkpt lat="45.7759916" lon="8.9634325"><ele>390.0</ele><time>2026-05-01T14:09:53.981Z</time></trkpt><trkpt lat="45.7759053" lon="8.9633943"><ele>390.0</ele><time>2026-05-01T14:09:57.016Z</time></trkpt><trkpt lat="45.77582" lon="8.9633553"><ele>390.0</ele><time>2026-05-01T14:10:00.142Z</time></trkpt><trkpt lat="45.7757458" lon="8.9632847"><ele>390.0</ele><time>2026-05-01T14:10:03.038Z</time></trkpt><trkpt lat="45.7756716" lon="8.9632067"><ele>390.0</ele><time>2026-05-01T14:10:06.017Z</time></trkpt><trkpt lat="45.7755907" lon="8.9631298"><ele>390.0</ele><time>2026-05-01T14:10:08.979Z</time></trkpt><trkpt lat="45.7755232" lon="8.9630709"><ele>390.0</ele><time>2026-05-01T14:10:12.038Z</time></trkpt><trkpt lat="45.7754782" lon="8.9630042"><ele>390.0</ele><time>2026-05-01T14:10:15.067Z</time></trkpt><trkpt lat="45.7754186" lon="8.9629559"><ele>390.0</ele><time>2026-05-01T14:10:17.921Z</time></trkpt><trkpt lat="45.7753432" lon="8.9629217"><ele>390.0</ele><time>2026-05-01T14:10:20.986Z</time></trkpt><trkpt lat="45.7752795" lon="8.9628989"><ele>390.0</ele><time>2026-05-01T14:10:23.122Z</time></trkpt><trkpt lat="45.7752157" lon="8.9629066"><ele>390.0</ele><time>2026-05-01T14:10:26.025Z</time></trkpt><trkpt lat="45.775149" lon="8.9629227"><ele>390.1666666666667</ele><time>2026-05-01T14:10:32.023Z</time></trkpt><trkpt lat="45.7750766" lon="8.962973"><ele>390.33333333333337</ele><time>2026-05-01T14:10:36.032Z</time></trkpt><trkpt lat="45.7750082" lon="8.9630171"><ele>390.5</ele><time>2026-05-01T14:10:40.019Z</time></trkpt><trkpt lat="45.7749374" lon="8.9630464"><ele>390.6666666666667</ele><time>2026-05-01T14:10:45.983Z</time></trkpt><trkpt lat="45.7748595" lon="8.9630723"><ele>390.83333333333337</ele><time>2026-05-01T14:10:54.921Z</time></trkpt><trkpt lat="45.7747859" lon="8.9631072"><ele>391.0</ele><time>2026-05-01T14:11:00.091Z</time></trkpt><trkpt lat="45.7747222" lon="8.9631601"><ele>391.0</ele><time>2026-05-01T14:11:04.083Z</time></trkpt><trkpt lat="45.7745792" lon="8.9632768"><ele>391.0</ele><time>2026-05-01T14:11:11.089Z</time></trkpt><trkpt lat="45.7745098" lon="8.9633119"><ele>391.0</ele><time>2026-05-01T14:11:15.039Z</time></trkpt><trkpt lat="45.7743759" lon="8.9634117"><ele>391.0</ele><time>2026-05-01T14:11:22.087Z</time></trkpt><trkpt lat="45.7742988" lon="8.9634677"><ele>391.4</ele><time>2026-05-01T14:11:26.076Z</time></trkpt><trkpt lat="45.7741808" lon="8.9635872"><ele>391.8</ele><time>2026-05-01T14:11:31.02Z</time></trkpt><trkpt lat="45.7741228" lon="8.9636466"><ele>392.2</ele><time>2026-05-01T14:11:34.002Z</time></trkpt><trkpt lat="45.7740158" lon="8.9637074"><ele>392.59999999999997</ele><time>2026-05-01T14:11:39.102Z</time></trkpt><trkpt lat="45.7739536" lon="8.9637912"><ele>393.0</ele><time>2026-05-01T14:11:42.022Z</time></trkpt><trkpt lat="45.773907" lon="8.9638673"><ele>393.0</ele><time>2026-05-01T14:11:45.116Z</time></trkpt><trkpt lat="45.7738662" lon="8.9639456"><ele>393.0</ele><time>2026-05-01T14:11:49.08Z</time></trkpt><trkpt lat="45.7738149" lon="8.9640164"><ele>393.0</ele><time>2026-05-01T14:11:54.057Z</time></trkpt><trkpt lat="45.7737231" lon="8.9641411"><ele>393.0</ele><time>2026-05-01T14:11:57.964Z</time></trkpt><trkpt lat="45.773663" lon="8.9642046"><ele>393.0</ele><time>2026-05-01T14:12:02.07Z</time></trkpt><trkpt lat="45.7735239" lon="8.9643324"><ele>393.5</ele><time>2026-05-01T14:12:09.058Z</time></trkpt><trkpt lat="45.7734608" lon="8.9643912"><ele>394.0</ele><time>2026-05-01T14:12:13.024Z</time></trkpt><trkpt lat="45.7733305" lon="8.9645028"><ele>394.5</ele><time>2026-05-01T14:12:17.997Z</time></trkpt><trkpt lat="45.7731668" lon="8.9646619"><ele>395.0</ele><time>2026-05-01T14:12:23.963Z</time></trkpt><trkpt lat="45.7730987" lon="8.9647393"><ele>395.0</ele><time>2026-05-01T14:12:26.059Z</time></trkpt><trkpt lat="45.7730523" lon="8.9648013"><ele>395.0</ele><time>2026-05-01T14:12:28.998Z</time></trkpt><trkpt lat="45.7729244" lon="8.9649451"><ele>395.0</ele><time>2026-05-01T14:12:32.041Z</time></trkpt><trkpt lat="45.7728518" lon="8.9649981"><ele>395.0</ele><time>2026-05-01T14:12:34.034Z</time></trkpt><trkpt lat="45.7727855" lon="8.9650763"><ele>395.0</ele><time>2026-05-01T14:12:37.013Z</time></trkpt><trkpt lat="45.7727169" lon="8.9651368"><ele>394.66666666666663</ele><time>2026-05-01T14:12:40.104Z</time></trkpt><trkpt lat="45.7726575" lon="8.9651796"><ele>394.3333333333333</ele><time>2026-05-01T14:12:43.084Z</time></trkpt><trkpt lat="45.7725943" lon="8.9652081"><ele>394.0</ele><time>2026-05-01T14:12:49.042Z</time></trkpt><trkpt lat="45.7725319" lon="8.9652512"><ele>393.66666666666663</ele><time>2026-05-01T14:12:53.102Z</time></trkpt><trkpt lat="45.7723932" lon="8.9653092"><ele>393.3333333333333</ele><time>2026-05-01T14:12:59.116Z</time></trkpt><trkpt lat="45.7723301" lon="8.9653463"><ele>393.0</ele><time>2026-05-01T14:13:03.936Z</time></trkpt><trkpt lat="45.7721398" lon="8.965413"><ele>393.0</ele><time>2026-05-01T14:13:10.008Z</time></trkpt><trkpt lat="45.7719842" lon="8.9655031"><ele>393.0</ele><time>2026-05-01T14:13:14.917Z</time></trkpt><trkpt lat="45.7719172" lon="8.9655361"><ele>393.0</ele><time>2026-05-01T14:13:18.063Z</time></trkpt><trkpt lat="45.7718461" lon="8.9655617"><ele>393.0</ele><time>2026-05-01T14:13:21.006Z</time></trkpt><trkpt lat="45.7717746" lon="8.965591"><ele>393.0</ele><time>2026-05-01T14:13:24.098Z</time></trkpt><trkpt lat="45.7717056" lon="8.9655829"><ele>393.5</ele><time>2026-05-01T14:13:27.124Z</time></trkpt><trkpt lat="45.771638" lon="8.9655508"><ele>394.0</ele><time>2026-05-01T14:13:30.398Z</time></trkpt><trkpt lat="45.7715608" lon="8.9655593"><ele>394.5</ele><time>2026-05-01T14:13:35.985Z</time></trkpt><trkpt lat="45.7715191" lon="8.965637"><ele>395.0</ele><time>2026-05-01T14:13:45.065Z</time></trkpt><trkpt lat="45.7713792" lon="8.9657625"><ele>395.5</ele><time>2026-05-01T14:13:51.137Z</time></trkpt><trkpt lat="45.7713131" lon="8.9657772"><ele>396.0</ele><time>2026-05-01T14:13:53.097Z</time></trkpt><trkpt lat="45.7711775" lon="8.9659828"><ele>396.1666666666667</ele><time>2026-05-01T14:13:58.011Z</time></trkpt><trkpt lat="45.7711218" lon="8.966048"><ele>396.33333333333337</ele><time>2026-05-01T14:14:00.978Z</time></trkpt><trkpt lat="45.7711367" lon="8.9661584"><ele>396.5</ele><time>2026-05-01T14:14:06.031Z</time></trkpt><trkpt lat="45.7710208" lon="8.9661949"><ele>396.6666666666667</ele><time>2026-05-01T14:14:07.062Z</time></trkpt><trkpt lat="45.7709492" lon="8.9662483"><ele>396.83333333333337</ele><time>2026-05-01T14:14:10.105Z</time></trkpt><trkpt lat="45.7708765" lon="8.9663257"><ele>397.0</ele><time>2026-05-01T14:14:15.999Z</time></trkpt><trkpt lat="45.7706958" lon="8.9665355"><ele>397.0</ele><time>2026-05-01T14:14:23.122Z</time></trkpt><trkpt lat="45.7705858" lon="8.9666623"><ele>397.0</ele><time>2026-05-01T14:14:28.403Z</time></trkpt><trkpt lat="45.7705202" lon="8.9667308"><ele>397.0</ele><time>2026-05-01T14:14:29.481Z</time></trkpt><trkpt lat="45.7704546" lon="8.9667815"><ele>397.0</ele><time>2026-05-01T14:14:31.581Z</time></trkpt><trkpt lat="45.7703913" lon="8.9668716"><ele>397.0</ele><time>2026-05-01T14:14:34.717Z</time></trkpt><trkpt lat="45.7703439" lon="8.9669398"><ele>397.0</ele><time>2026-05-01T14:14:36.837Z</time></trkpt><trkpt lat="45.7702924" lon="8.9669926"><ele>397.0</ele><time>2026-05-01T14:14:38.985Z</time></trkpt><trkpt lat="45.7702248" lon="8.9670487"><ele>397.0</ele><time>2026-05-01T14:14:42.004Z</time></trkpt><trkpt lat="45.7701693" lon="8.9670923"><ele>397.0</ele><time>2026-05-01T14:14:44.999Z</time></trkpt><trkpt lat="45.7701091" lon="8.9671329"><ele>397.0</ele><time>2026-05-01T14:14:48.076Z</time></trkpt><trkpt lat="45.7700458" lon="8.9671657"><ele>397.0</ele><time>2026-05-01T14:14:51.019Z</time></trkpt><trkpt lat="45.7699842" lon="8.967189"><ele>397.0</ele><time>2026-05-01T14:14:54.033Z</time></trkpt><trkpt lat="45.7699099" lon="8.9671816"><ele>397.50000000000006</ele><time>2026-05-01T14:14:58.06Z</time></trkpt><trkpt lat="45.769852" lon="8.9671384"><ele>398.0</ele><time>2026-05-01T14:15:01.936Z</time></trkpt><trkpt lat="45.7697787" lon="8.967105"><ele>398.5</ele><time>2026-05-01T14:15:06.063Z</time></trkpt><trkpt lat="45.769705" lon="8.9670637"><ele>399.0</ele><time>2026-05-01T14:15:10.054Z</time></trkpt><trkpt lat="45.7696346" lon="8.9670545"><ele>399.50000000000006</ele><time>2026-05-01T14:15:14.081Z</time></trkpt><trkpt lat="45.769563" lon="8.96705"><ele>400.0</ele><time>2026-05-01T14:15:18.092Z</time></trkpt><trkpt lat="45.7693595" lon="8.9670516"><ele>399.83333333333337</ele><time>2026-05-01T14:15:32.069Z</time></trkpt><trkpt lat="45.7692773" lon="8.9670623"><ele>399.6666666666667</ele><time>2026-05-01T14:15:35.084Z</time></trkpt><trkpt lat="45.7692032" lon="8.9670641"><ele>399.5</ele><time>2026-05-01T14:15:38.026Z</time></trkpt><trkpt lat="45.7691208" lon="8.9670044"><ele>399.33333333333337</ele><time>2026-05-01T14:15:41.005Z</time></trkpt><trkpt lat="45.7690466" lon="8.9669371"><ele>399.1666666666667</ele><time>2026-05-01T14:15:43.995Z</time></trkpt><trkpt lat="45.7689888" lon="8.9668638"><ele>399.0</ele><time>2026-05-01T14:15:47.077Z</time></trkpt><trkpt lat="45.7689253" lon="8.9668125"><ele>399.0</ele><time>2026-05-01T14:15:49.708Z</time></trkpt><trkpt lat="45.7688497" lon="8.9667624"><ele>399.0</ele><time>2026-05-01T14:15:52.923Z</time></trkpt><trkpt lat="45.7687701" lon="8.9667282"><ele>399.0</ele><time>2026-05-01T14:15:56.013Z</time></trkpt><trkpt lat="45.7687078" lon="8.9666779"><ele>399.0</ele><time>2026-05-01T14:15:58.937Z</time></trkpt><trkpt lat="45.7686314" lon="8.9666262"><ele>399.0</ele><time>2026-05-01T14:16:02.085Z</time></trkpt><trkpt lat="45.7685688" lon="8.9666127"><ele>399.0</ele><time>2026-05-01T14:16:03.996Z</time></trkpt><trkpt lat="45.7684966" lon="8.9666127"><ele>398.0</ele><time>2026-05-01T14:16:06.145Z</time></trkpt><trkpt lat="45.768424" lon="8.9666272"><ele>397.0</ele><time>2026-05-01T14:16:08.236Z</time></trkpt><trkpt lat="45.7683564" lon="8.9666485"><ele>396.0</ele><time>2026-05-01T14:16:10.316Z</time></trkpt><trkpt lat="45.7682901" lon="8.9666717"><ele>395.0</ele><time>2026-05-01T14:16:12.416Z</time></trkpt><trkpt lat="45.7682219" lon="8.9666902"><ele>394.0</ele><time>2026-05-01T14:16:14.518Z</time></trkpt><trkpt lat="45.7681466" lon="8.9667054"><ele>393.0</ele><time>2026-05-01T14:16:16.599Z</time></trkpt><trkpt lat="45.7680763" lon="8.9667157"><ele>392.0</ele><time>2026-05-01T14:16:19.778Z</time></trkpt><trkpt lat="45.7680087" lon="8.9667259"><ele>391.99999999999994</ele><time>2026-05-01T14:16:22.919Z</time></trkpt><trkpt lat="45.767901" lon="8.9667341"><ele>392.0</ele><time>2026-05-01T14:16:25.076Z</time></trkpt><trkpt lat="45.767816" lon="8.9667407"><ele>392.0</ele><time>2026-05-01T14:16:28.091Z</time></trkpt><trkpt lat="45.7677478" lon="8.9667019"><ele>392.0</ele><time>2026-05-01T14:16:31.062Z</time></trkpt><trkpt lat="45.7676913" lon="8.9666448"><ele>391.99999999999994</ele><time>2026-05-01T14:16:34.048Z</time></trkpt><trkpt lat="45.767629" lon="8.9666103"><ele>392.0</ele><time>2026-05-01T14:16:37.044Z</time></trkpt><trkpt lat="45.7675612" lon="8.9666318"><ele>392.57142857142856</ele><time>2026-05-01T14:16:40.006Z</time></trkpt><trkpt lat="45.7674794" lon="8.9666142"><ele>393.1428571428571</ele><time>2026-05-01T14:16:44.042Z</time></trkpt><trkpt lat="45.7674119" lon="8.9665989"><ele>393.7142857142857</ele><time>2026-05-01T14:16:46.999Z</time></trkpt><trkpt lat="45.767346" lon="8.9665675"><ele>394.2857142857143</ele><time>2026-05-01T14:16:50.087Z</time></trkpt><trkpt lat="45.7672788" lon="8.966545"><ele>394.85714285714283</ele><time>2026-05-01T14:16:53.039Z</time></trkpt><trkpt lat="45.76722" lon="8.9665076"><ele>395.42857142857144</ele><time>2026-05-01T14:16:55.943Z</time></trkpt><trkpt lat="45.7671619" lon="8.9664456"><ele>396.0</ele><time>2026-05-01T14:17:00.054Z</time></trkpt><trkpt lat="45.7671082" lon="8.966391"><ele>396.0</ele><time>2026-05-01T14:17:07.043Z</time></trkpt><trkpt lat="45.7669886" lon="8.9662473"><ele>396.0</ele><time>2026-05-01T14:17:16.093Z</time></trkpt><trkpt lat="45.766932" lon="8.9662042"><ele>396.0</ele><time>2026-05-01T14:17:19.998Z</time></trkpt><trkpt lat="45.7667763" lon="8.9661116"><ele>396.0</ele><time>2026-05-01T14:17:27.091Z</time></trkpt><trkpt lat="45.7667226" lon="8.9660479"><ele>396.6</ele><time>2026-05-01T14:17:34.998Z</time></trkpt><trkpt lat="45.7665977" lon="8.9659814"><ele>397.20000000000005</ele><time>2026-05-01T14:17:39.16Z</time></trkpt><trkpt lat="45.7665383" lon="8.9659435"><ele>397.79999999999995</ele><time>2026-05-01T14:17:43.375Z</time></trkpt><trkpt lat="45.7664865" lon="8.9658619"><ele>398.4</ele><time>2026-05-01T14:17:47.577Z</time></trkpt><trkpt lat="45.7663393" lon="8.965825"><ele>399.0</ele><time>2026-05-01T14:17:50.737Z</time></trkpt><trkpt lat="45.7662524" lon="8.9657852"><ele>399.42857142857144</ele><time>2026-05-01T14:17:52.837Z</time></trkpt><trkpt lat="45.7661833" lon="8.965734"><ele>399.8571428571429</ele><time>2026-05-01T14:17:56.076Z</time></trkpt><trkpt lat="45.7661211" lon="8.9657135"><ele>400.2857142857143</ele><time>2026-05-01T14:17:59.082Z</time></trkpt><trkpt lat="45.766054" lon="8.9656469"><ele>400.7142857142857</ele><time>2026-05-01T14:18:03.065Z</time></trkpt><trkpt lat="45.7660074" lon="8.9655722"><ele>401.14285714285717</ele><time>2026-05-01T14:18:06.06Z</time></trkpt><trkpt lat="45.7659528" lon="8.9655113"><ele>401.57142857142856</ele><time>2026-05-01T14:18:09.022Z</time></trkpt><trkpt lat="45.7658787" lon="8.965456"><ele>402.0</ele><time>2026-05-01T14:18:13.082Z</time></trkpt><trkpt lat="45.7658243" lon="8.9654092"><ele>402.0</ele><time>2026-05-01T14:18:16.011Z</time></trkpt><trkpt lat="45.765769" lon="8.9653441"><ele>402.0</ele><time>2026-05-01T14:18:19.039Z</time></trkpt><trkpt lat="45.7657172" lon="8.9652833"><ele>402.0</ele><time>2026-05-01T14:18:23.316Z</time></trkpt><trkpt lat="45.7656787" lon="8.9651986"><ele>402.0</ele><time>2026-05-01T14:18:27.598Z</time></trkpt><trkpt lat="45.7656295" lon="8.9651114"><ele>402.0</ele><time>2026-05-01T14:18:31.904Z</time></trkpt><trkpt lat="45.7655611" lon="8.9650588"><ele>402.0</ele><time>2026-05-01T14:18:35.102Z</time></trkpt><trkpt lat="45.7654874" lon="8.9650404"><ele>402.0</ele><time>2026-05-01T14:18:38.007Z</time></trkpt><trkpt lat="45.7654214" lon="8.9649937"><ele>402.20000000000005</ele><time>2026-05-01T14:18:43.017Z</time></trkpt><trkpt lat="45.7653533" lon="8.9649466"><ele>402.4</ele><time>2026-05-01T14:18:46.936Z</time></trkpt><trkpt lat="45.7652923" lon="8.9648964"><ele>402.6</ele><time>2026-05-01T14:18:50.036Z</time></trkpt><trkpt lat="45.7652656" lon="8.9648054"><ele>402.79999999999995</ele><time>2026-05-01T14:18:56.922Z</time></trkpt><trkpt lat="45.7651753" lon="8.9645844"><ele>403.0</ele><time>2026-05-01T14:19:05.044Z</time></trkpt><trkpt lat="45.7651309" lon="8.9645201"><ele>403.00000000000006</ele><time>2026-05-01T14:19:09.054Z</time></trkpt><trkpt lat="45.7650573" lon="8.9644347"><ele>403.0</ele><time>2026-05-01T14:19:16.016Z</time></trkpt><trkpt lat="45.7650084" lon="8.9643633"><ele>403.0</ele><time>2026-05-01T14:19:17.074Z</time></trkpt><trkpt lat="45.7649509" lon="8.9642766"><ele>403.0</ele><time>2026-05-01T14:19:20.101Z</time></trkpt><trkpt lat="45.7648913" lon="8.9642336"><ele>403.00000000000006</ele><time>2026-05-01T14:19:23.057Z</time></trkpt><trkpt lat="45.7648459" lon="8.9641499"><ele>403.0</ele><time>2026-05-01T14:19:27.067Z</time></trkpt><trkpt lat="45.7647953" lon="8.9640816"><ele>404.14285714285717</ele><time>2026-05-01T14:19:29.966Z</time></trkpt><trkpt lat="45.7647286" lon="8.9640317"><ele>405.2857142857143</ele><time>2026-05-01T14:19:36.065Z</time></trkpt><trkpt lat="45.7646567" lon="8.9640053"><ele>406.42857142857144</ele><time>2026-05-01T14:19:39.996Z</time></trkpt><trkpt lat="45.7645827" lon="8.9640009"><ele>407.57142857142856</ele><time>2026-05-01T14:19:44.111Z</time></trkpt><trkpt lat="45.7645128" lon="8.9639978"><ele>408.71428571428567</ele><time>2026-05-01T14:19:48.125Z</time></trkpt><trkpt lat="45.7644303" lon="8.9640108"><ele>409.85714285714283</ele><time>2026-05-01T14:19:52.009Z</time></trkpt><trkpt lat="45.7643729" lon="8.9640485"><ele>411.0</ele><time>2026-05-01T14:19:55.112Z</time></trkpt><trkpt lat="45.7643177" lon="8.9641062"><ele>411.0</ele><time>2026-05-01T14:19:59.021Z</time></trkpt><trkpt lat="45.7642643" lon="8.9641684"><ele>411.0</ele><time>2026-05-01T14:20:03.015Z</time></trkpt><trkpt lat="45.7642107" lon="8.9642297"><ele>411.0</ele><time>2026-05-01T14:20:07.071Z</time></trkpt><trkpt lat="45.7641552" lon="8.9642909"><ele>411.0</ele><time>2026-05-01T14:20:11.94Z</time></trkpt><trkpt lat="45.764067" lon="8.9643078"><ele>411.0</ele><time>2026-05-01T14:20:17.949Z</time></trkpt><trkpt lat="45.7639842" lon="8.9643668"><ele>411.0</ele><time>2026-05-01T14:20:21.111Z</time></trkpt><trkpt lat="45.7639013" lon="8.9644408"><ele>410.7142857142857</ele><time>2026-05-01T14:20:23.999Z</time></trkpt><trkpt lat="45.7638296" lon="8.9644955"><ele>410.42857142857144</ele><time>2026-05-01T14:20:27.069Z</time></trkpt><trkpt lat="45.7637637" lon="8.9645567"><ele>410.1428571428571</ele><time>2026-05-01T14:20:30.052Z</time></trkpt><trkpt lat="45.7637051" lon="8.9645934"><ele>409.8571428571429</ele><time>2026-05-01T14:20:33.009Z</time></trkpt><trkpt lat="45.7636339" lon="8.9646417"><ele>409.5714285714286</ele><time>2026-05-01T14:20:36.009Z</time></trkpt><trkpt lat="45.7635745" lon="8.9647104"><ele>409.2857142857143</ele><time>2026-05-01T14:20:39.1Z</time></trkpt><trkpt lat="45.7635265" lon="8.9647814"><ele>409.0</ele><time>2026-05-01T14:20:41.974Z</time></trkpt><trkpt lat="45.7634764" lon="8.9648659"><ele>409.00000000000006</ele><time>2026-05-01T14:20:45.06Z</time></trkpt><trkpt lat="45.7634631" lon="8.9649577"><ele>409.0</ele><time>2026-05-01T14:20:48.072Z</time></trkpt><trkpt lat="45.7633561" lon="8.9649084"><ele>409.0</ele><time>2026-05-01T14:20:49.07Z</time></trkpt><trkpt lat="45.7632687" lon="8.9649268"><ele>409.0</ele><time>2026-05-01T14:20:51.001Z</time></trkpt><trkpt lat="45.7631983" lon="8.9649649"><ele>409.00000000000006</ele><time>2026-05-01T14:20:55.068Z</time></trkpt><trkpt lat="45.7631433" lon="8.9650234"><ele>409.0</ele><time>2026-05-01T14:21:00.003Z</time></trkpt><trkpt lat="45.7631095" lon="8.9651888"><ele>407.79999999999995</ele><time>2026-05-01T14:21:10.443Z</time></trkpt><trkpt lat="45.7631067" lon="8.965315"><ele>406.59999999999997</ele><time>2026-05-01T14:21:11.47Z</time></trkpt><trkpt lat="45.7630615" lon="8.9655328"><ele>405.4</ele><time>2026-05-01T14:21:17.75Z</time></trkpt><trkpt lat="45.7630311" lon="8.9656308"><ele>404.2</ele><time>2026-05-01T14:21:20.888Z</time></trkpt><trkpt lat="45.7629937" lon="8.9657184"><ele>403.0</ele><time>2026-05-01T14:21:25.031Z</time></trkpt><trkpt lat="45.7629186" lon="8.9657531"><ele>403.00000000000006</ele><time>2026-05-01T14:21:28.022Z</time></trkpt><trkpt lat="45.7628482" lon="8.9658183"><ele>403.0</ele><time>2026-05-01T14:21:31.972Z</time></trkpt><trkpt lat="45.7627863" lon="8.9658736"><ele>403.0</ele><time>2026-05-01T14:21:35.098Z</time></trkpt><trkpt lat="45.7627308" lon="8.9659191"><ele>403.0</ele><time>2026-05-01T14:21:37.997Z</time></trkpt><trkpt lat="45.7626658" lon="8.9659627"><ele>403.00000000000006</ele><time>2026-05-01T14:21:40.949Z</time></trkpt><trkpt lat="45.7625906" lon="8.9660252"><ele>403.0</ele><time>2026-05-01T14:21:44.049Z</time></trkpt><trkpt lat="45.7625382" lon="8.9661098"><ele>403.0</ele><time>2026-05-01T14:21:47.039Z</time></trkpt><trkpt lat="45.7624897" lon="8.9661854"><ele>403.0</ele><time>2026-05-01T14:21:50.018Z</time></trkpt><trkpt lat="45.7624281" lon="8.9662311"><ele>403.0</ele><time>2026-05-01T14:21:54.01Z</time></trkpt><trkpt lat="45.762362" lon="8.9662712"><ele>403.0</ele><time>2026-05-01T14:21:58.111Z</time></trkpt><trkpt lat="45.7623114" lon="8.9663291"><ele>403.0</ele><time>2026-05-01T14:22:01.219Z</time></trkpt><trkpt lat="45.762252" lon="8.9664052"><ele>403.0</ele><time>2026-05-01T14:22:04.322Z</time></trkpt><trkpt lat="45.7621965" lon="8.9664802"><ele>403.0</ele><time>2026-05-01T14:22:07.311Z</time></trkpt><trkpt lat="45.7621393" lon="8.9665552"><ele>403.00000000000006</ele><time>2026-05-01T14:22:10.468Z</time></trkpt><trkpt lat="45.7620684" lon="8.9666442"><ele>403.0</ele><time>2026-05-01T14:22:13.721Z</time></trkpt><trkpt lat="45.7620086" lon="8.9667165"><ele>403.0</ele><time>2026-05-01T14:22:17.062Z</time></trkpt><trkpt lat="45.761966" lon="8.966815"><ele>403.0</ele><time>2026-05-01T14:22:20.312Z</time></trkpt><trkpt lat="45.7619447" lon="8.96691"><ele>403.00000000000006</ele><time>2026-05-01T14:22:24.044Z</time></trkpt><trkpt lat="45.7619439" lon="8.967017"><ele>403.0</ele><time>2026-05-01T14:22:27.101Z</time></trkpt><trkpt lat="45.7619703" lon="8.967117"><ele>401.79999999999995</ele><time>2026-05-01T14:22:35.116Z</time></trkpt><trkpt lat="45.7620094" lon="8.9672366"><ele>400.6</ele><time>2026-05-01T14:22:38.851Z</time></trkpt><trkpt lat="45.7620341" lon="8.9673252"><ele>399.4</ele><time>2026-05-01T14:22:40.01Z</time></trkpt><trkpt lat="45.7620794" lon="8.9673914"><ele>398.20000000000005</ele><time>2026-05-01T14:22:47.998Z</time></trkpt><trkpt lat="45.7620995" lon="8.9676742"><ele>397.0</ele><time>2026-05-01T14:22:52.089Z</time></trkpt><trkpt lat="45.7621516" lon="8.9677643"><ele>396.33333333333337</ele><time>2026-05-01T14:22:54.91Z</time></trkpt><trkpt lat="45.7622085" lon="8.9678129"><ele>395.6666666666667</ele><time>2026-05-01T14:22:58.086Z</time></trkpt><trkpt lat="45.7622542" lon="8.9678909"><ele>395.0</ele><time>2026-05-01T14:23:03.112Z</time></trkpt><trkpt lat="45.7622835" lon="8.9680337"><ele>394.33333333333337</ele><time>2026-05-01T14:23:09.938Z</time></trkpt><trkpt lat="45.7622858" lon="8.9681263"><ele>393.6666666666667</ele><time>2026-05-01T14:23:16.999Z</time></trkpt><trkpt lat="45.7623844" lon="8.9681546"><ele>393.0</ele><time>2026-05-01T14:23:18.003Z</time></trkpt><trkpt lat="45.7624548" lon="8.9682276"><ele>393.00000000000006</ele><time>2026-05-01T14:23:21.049Z</time></trkpt><trkpt lat="45.7624869" lon="8.9683265"><ele>393.0</ele><time>2026-05-01T14:23:24.922Z</time></trkpt><trkpt lat="45.7625243" lon="8.9684016"><ele>393.0</ele><time>2026-05-01T14:23:27.999Z</time></trkpt><trkpt lat="45.7625332" lon="8.9684958"><ele>393.0</ele><time>2026-05-01T14:23:30.829Z</time></trkpt><trkpt lat="45.7625734" lon="8.9685748"><ele>393.0</ele><time>2026-05-01T14:23:34.042Z</time></trkpt><trkpt lat="45.7625796" lon="8.9686748"><ele>393.00000000000006</ele><time>2026-05-01T14:23:38.052Z</time></trkpt><trkpt lat="45.7625629" lon="8.9687667"><ele>393.0</ele><time>2026-05-01T14:23:41.001Z</time></trkpt><trkpt lat="45.7625605" lon="8.968866"><ele>392.3333333333333</ele><time>2026-05-01T14:23:46.071Z</time></trkpt><trkpt lat="45.7625474" lon="8.9689652"><ele>391.66666666666663</ele><time>2026-05-01T14:23:53.95Z</time></trkpt><trkpt lat="45.7624954" lon="8.9690782"><ele>391.0</ele><time>2026-05-01T14:23:57.999Z</time></trkpt><trkpt lat="45.7624502" lon="8.969168"><ele>390.3333333333333</ele><time>2026-05-01T14:24:00.112Z</time></trkpt><trkpt lat="45.7624205" lon="8.969248"><ele>389.66666666666663</ele><time>2026-05-01T14:24:05.486Z</time></trkpt><trkpt lat="45.7623972" lon="8.9693714"><ele>389.0</ele><time>2026-05-01T14:24:08.646Z</time></trkpt><trkpt lat="45.7623731" lon="8.9694553"><ele>388.99999999999994</ele><time>2026-05-01T14:24:11.006Z</time></trkpt><trkpt lat="45.7623071" lon="8.9695172"><ele>389.0</ele><time>2026-05-01T14:24:14.242Z</time></trkpt><trkpt lat="45.7622482" lon="8.9695561"><ele>389.0</ele><time>2026-05-01T14:24:21.369Z</time></trkpt><trkpt lat="45.7621489" lon="8.969579"><ele>389.0</ele><time>2026-05-01T14:24:34.997Z</time></trkpt><trkpt lat="45.762067" lon="8.9695645"><ele>388.99999999999994</ele><time>2026-05-01T14:24:36.009Z</time></trkpt><trkpt lat="45.7620004" lon="8.9695827"><ele>389.0</ele><time>2026-05-01T14:24:39.154Z</time></trkpt><trkpt lat="45.7619103" lon="8.9696259"><ele>388.16666666666663</ele><time>2026-05-01T14:24:44.583Z</time></trkpt><trkpt lat="45.7618294" lon="8.9696754"><ele>387.3333333333333</ele><time>2026-05-01T14:24:47.886Z</time></trkpt><trkpt lat="45.7617436" lon="8.9697041"><ele>386.5</ele><time>2026-05-01T14:24:51.028Z</time></trkpt><trkpt lat="45.7616719" lon="8.9697202"><ele>385.66666666666663</ele><time>2026-05-01T14:24:55.038Z</time></trkpt><trkpt lat="45.7616082" lon="8.969768"><ele>384.8333333333333</ele><time>2026-05-01T14:24:59.048Z</time></trkpt><trkpt lat="45.7615274" lon="8.9698241"><ele>384.0</ele><time>2026-05-01T14:25:02.026Z</time></trkpt><trkpt lat="45.7614502" lon="8.9698842"><ele>384.0</ele><time>2026-05-01T14:25:05.091Z</time></trkpt><trkpt lat="45.761371" lon="8.9699154"><ele>384.0</ele><time>2026-05-01T14:25:08.01Z</time></trkpt><trkpt lat="45.7613002" lon="8.9699931"><ele>384.0</ele><time>2026-05-01T14:25:10.997Z</time></trkpt><trkpt lat="45.7612291" lon="8.9700077"><ele>384.0</ele><time>2026-05-01T14:25:14.055Z</time></trkpt><trkpt lat="45.7611578" lon="8.969982"><ele>384.0</ele><time>2026-05-01T14:25:16.992Z</time></trkpt><trkpt lat="45.7610798" lon="8.969953"><ele>384.0</ele><time>2026-05-01T14:25:20.012Z</time></trkpt><trkpt lat="45.7610031" lon="8.969939"><ele>383.79999999999995</ele><time>2026-05-01T14:25:22.998Z</time></trkpt><trkpt lat="45.760938" lon="8.9699228"><ele>383.59999999999997</ele><time>2026-05-01T14:25:27.987Z</time></trkpt><trkpt lat="45.7608777" lon="8.9698883"><ele>383.4</ele><time>2026-05-01T14:25:33.998Z</time></trkpt><trkpt lat="45.7607534" lon="8.9698896"><ele>383.2</ele><time>2026-05-01T14:25:40.007Z</time></trkpt><trkpt lat="45.760685" lon="8.9699121"><ele>383.0</ele><time>2026-05-01T14:25:43.038Z</time></trkpt><trkpt lat="45.7605372" lon="8.9699514"><ele>383.0</ele><time>2026-05-01T14:25:47.97Z</time></trkpt><trkpt lat="45.7604678" lon="8.9699608"><ele>383.0</ele><time>2026-05-01T14:25:51.058Z</time></trkpt><trkpt lat="45.7603575" lon="8.9699243"><ele>383.0</ele><time>2026-05-01T14:25:55.228Z</time></trkpt><trkpt lat="45.7602904" lon="8.9699064"><ele>383.0</ele><time>2026-05-01T14:25:57.371Z</time></trkpt><trkpt lat="45.7602185" lon="8.9698956"><ele>383.0</ele><time>2026-05-01T14:26:05.132Z</time></trkpt><trkpt lat="45.7601382" lon="8.9699073"><ele>383.0</ele><time>2026-05-01T14:26:09.089Z</time></trkpt><trkpt lat="45.7600831" lon="8.9698519"><ele>382.5</ele><time>2026-05-01T14:26:13.067Z</time></trkpt><trkpt lat="45.7600171" lon="8.9697872"><ele>382.0</ele><time>2026-05-01T14:26:18.123Z</time></trkpt><trkpt lat="45.7600021" lon="8.9696854"><ele>381.5</ele><time>2026-05-01T14:26:19.189Z</time></trkpt><trkpt lat="45.7599977" lon="8.96956"><ele>381.0</ele><time>2026-05-01T14:26:20.28Z</time></trkpt><trkpt lat="45.7599748" lon="8.96947"><ele>380.5</ele><time>2026-05-01T14:26:22.529Z</time></trkpt><trkpt lat="45.7599356" lon="8.9693758"><ele>380.0</ele><time>2026-05-01T14:26:25.74Z</time></trkpt><trkpt lat="45.7599213" lon="8.9692762"><ele>380.2857142857143</ele><time>2026-05-01T14:26:28.969Z</time></trkpt><trkpt lat="45.7598944" lon="8.9691834"><ele>380.57142857142856</ele><time>2026-05-01T14:26:32.998Z</time></trkpt><trkpt lat="45.7598745" lon="8.9690957"><ele>380.8571428571429</ele><time>2026-05-01T14:26:37.04Z</time></trkpt><trkpt lat="45.759866" lon="8.9689988"><ele>381.1428571428571</ele><time>2026-05-01T14:26:41.994Z</time></trkpt><trkpt lat="45.7598129" lon="8.9689353"><ele>381.4285714285714</ele><time>2026-05-01T14:26:54.869Z</time></trkpt><trkpt lat="45.7597505" lon="8.9689221"><ele>381.7142857142857</ele><time>2026-05-01T14:26:59.129Z</time></trkpt><trkpt lat="45.7597381" lon="8.9687646"><ele>382.0</ele><time>2026-05-01T14:27:02.316Z</time></trkpt><trkpt lat="45.7597292" lon="8.9686601"><ele>382.0</ele><time>2026-05-01T14:27:05.066Z</time></trkpt><trkpt lat="45.7596374" lon="8.9684372"><ele>382.0</ele><time>2026-05-01T14:27:14.002Z</time></trkpt><trkpt lat="45.7595979" lon="8.9683649"><ele>382.0</ele><time>2026-05-01T14:27:16Z</time></trkpt></trkseg></trk></gpx>